createdAt,value
2023-02-16T00:00:57.425Z,42.30
2023-02-16T00:04:02.020Z,35.37
2023-02-16T00:07:04.907Z,35.53
2023-02-16T00:10:08.329Z,32.63
2023-02-16T00:13:40.811Z,33.37
2023-02-16T00:16:43.730Z,36.27
2023-02-16T00:19:47.689Z,36.53
2023-02-16T00:22:50.351Z,36.93
2023-02-16T00:25:53.041Z,35.73
2023-02-16T00:28:59.399Z,30.70
2023-02-16T00:32:04.800Z,35.07
2023-02-16T00:35:15.770Z,32.63
2023-02-16T00:38:20.622Z,29.50
2023-02-16T00:41:46.888Z,33.23
2023-02-16T00:44:54.071Z,31.90
2023-02-16T00:47:56.873Z,36.20
2023-02-16T00:51:13.804Z,30.83
2023-02-16T00:54:23.056Z,36.23
2023-02-16T00:57:26.942Z,32.77
2023-02-16T01:00:41.716Z,31.23
2023-02-16T01:03:45.293Z,34.63
2023-02-16T01:07:07.538Z,35.20
2023-02-16T01:10:31.006Z,36.30
2023-02-16T01:13:44.831Z,30.33
2023-02-16T01:16:47.579Z,33.77
2023-02-16T01:19:50.272Z,31.00
2023-02-16T01:22:57.473Z,38.93
2023-02-16T01:26:03.263Z,29.13
2023-02-16T01:29:06.428Z,30.70
2023-02-16T01:32:11.918Z,30.80
2023-02-16T01:35:18.190Z,30.60
2023-02-16T01:38:24.235Z,37.03
2023-02-16T01:41:47.544Z,32.40
2023-02-16T01:44:59.213Z,28.10
2023-02-16T01:48:05.636Z,32.53
2023-02-16T01:51:17.501Z,30.33
2023-02-16T01:54:39.829Z,27.27
2023-02-16T01:57:46.027Z,30.77
2023-02-16T02:01:41.881Z,27.47
2023-02-16T02:05:06.076Z,25.87
2023-02-16T02:08:17.501Z,28.93
2023-02-16T02:11:35.635Z,25.30
2023-02-16T02:14:40.330Z,28.17
2023-02-16T02:17:42.933Z,29.93
2023-02-16T02:21:20.161Z,30.10
2023-02-16T02:25:03.032Z,24.53
2023-02-16T02:28:13.506Z,28.43
2023-02-16T02:31:42.508Z,28.60
2023-02-16T02:34:58.725Z,29.20
2023-02-16T02:41:50.705Z,35.00
2023-02-16T02:44:59.129Z,24.77
2023-02-16T02:48:09.391Z,25.20
2023-02-16T02:51:33.790Z,26.67
2023-02-16T02:55:00.160Z,25.80
2023-02-16T02:58:24.081Z,21.83
2023-02-16T03:01:34.097Z,19.20
2023-02-16T03:04:37.095Z,25.53
2023-02-16T03:07:50.404Z,21.93
2023-02-16T03:11:14.193Z,23.33
2023-02-16T03:14:19.596Z,26.27
2023-02-16T03:17:52.639Z,25.67
2023-02-16T03:21:17.587Z,25.83
2023-02-16T03:24:41.707Z,25.93
2023-02-16T03:28:02.409Z,25.93
2023-02-16T03:31:07.473Z,25.73
2023-02-16T03:34:12.724Z,28.07
2023-02-16T03:37:21.686Z,24.27
2023-02-16T03:40:30.170Z,22.33
2023-02-16T03:43:37.930Z,26.67
2023-02-16T03:46:40.676Z,23.67
2023-02-16T03:49:44.766Z,25.47
2023-02-16T03:53:06.509Z,24.60
2023-02-16T03:56:09.186Z,25.37
2023-02-16T03:59:14.861Z,28.57
2023-02-16T04:02:17.622Z,24.73
2023-02-16T04:05:21.715Z,29.17
2023-02-16T04:08:24.530Z,26.83
2023-02-16T04:11:44.585Z,37.80
2023-02-16T04:14:47.266Z,27.90
2023-02-16T04:17:50.203Z,28.17
2023-02-16T04:20:56.708Z,23.90
2023-02-16T04:24:00.236Z,25.73
2023-02-16T04:27:03.439Z,23.73
2023-02-16T04:30:08.163Z,26.23
2023-02-16T04:33:16.910Z,26.83
2023-02-16T04:36:20.961Z,24.00
2023-02-16T04:39:23.622Z,28.00
2023-02-16T04:42:26.331Z,28.20
2023-02-16T04:45:30.543Z,27.83
2023-02-16T04:48:33.177Z,25.60
2023-02-16T04:51:40.009Z,23.87
2023-02-16T04:54:49.808Z,25.33
2023-02-16T04:57:52.464Z,34.53
2023-02-16T05:00:55.057Z,31.77
2023-02-16T05:03:58.132Z,30.83
2023-02-16T05:07:11.292Z,31.10
2023-02-16T05:10:15.575Z,32.30
2023-02-16T05:13:40.672Z,29.27
2023-02-16T05:16:47.598Z,17.83
2023-02-16T05:19:51.991Z,25.20
2023-02-16T05:22:55.957Z,27.67
2023-02-16T05:25:58.611Z,28.57
2023-02-16T05:29:01.539Z,24.47
2023-02-16T05:32:04.959Z,25.47
2023-02-16T05:35:07.875Z,25.83
2023-02-16T05:38:11.941Z,29.87
2023-02-16T05:41:25.170Z,29.33
2023-02-16T05:44:29.789Z,28.77
2023-02-16T05:47:32.579Z,24.17
2023-02-16T05:50:35.199Z,24.93
2023-02-16T05:53:39.208Z,26.30
2023-02-16T05:56:46.939Z,27.50
2023-02-16T05:59:49.586Z,26.07
2023-02-16T06:02:52.801Z,24.37
2023-02-16T06:05:56.598Z,28.53
2023-02-16T06:09:01.870Z,25.97
2023-02-16T06:12:09.400Z,29.97
2023-02-16T06:15:26.073Z,32.57
2023-02-16T06:18:28.705Z,33.10
2023-02-16T06:21:40.722Z,31.07
2023-02-16T06:24:44.713Z,36.00
2023-02-16T06:27:47.676Z,35.97
2023-02-16T06:30:51.078Z,38.07
2023-02-16T06:33:56.660Z,30.30
2023-02-16T06:36:59.325Z,34.90
2023-02-16T06:40:03.796Z,28.97
2023-02-16T06:43:06.807Z,27.13
2023-02-16T06:46:11.594Z,30.87
2023-02-16T06:49:16.810Z,37.43
2023-02-16T06:52:19.639Z,29.20
2023-02-16T06:55:23.936Z,38.77
2023-02-16T06:58:26.770Z,41.10
2023-02-16T07:01:29.909Z,25.43
2023-02-16T07:04:38.769Z,28.50
2023-02-16T07:07:41.617Z,22.50
2023-02-16T07:10:50.404Z,21.27
2023-02-16T07:13:55.720Z,25.13
2023-02-16T07:17:04.286Z,28.13
2023-02-16T07:20:13.150Z,34.57
2023-02-16T07:23:18.831Z,31.47
2023-02-16T07:26:30.341Z,35.47
2023-02-16T07:29:33.003Z,38.37
2023-02-16T07:32:40.246Z,37.00
2023-02-16T07:35:44.386Z,27.30
2023-02-16T07:38:47.714Z,32.77
2023-02-16T07:41:54.832Z,25.87
2023-02-16T07:45:00.834Z,25.90
2023-02-16T07:48:06.753Z,31.70
2023-02-16T07:51:11.707Z,29.57
2023-02-16T07:54:14.337Z,39.67
2023-02-16T07:57:18.385Z,36.23
2023-02-16T08:00:29.953Z,32.60
2023-02-16T08:03:35.808Z,37.93
2023-02-16T08:06:41.512Z,31.73
2023-02-16T08:09:44.626Z,35.03
2023-02-16T08:12:55.252Z,26.83
2023-02-16T08:15:58.017Z,35.60
2023-02-16T08:19:03.588Z,34.67
2023-02-16T08:22:07.337Z,31.90
2023-02-16T08:25:10.349Z,31.93
2023-02-16T08:28:14.819Z,31.83
2023-02-16T08:31:25.912Z,32.77
2023-02-16T08:34:28.655Z,29.40
2023-02-16T08:37:35.984Z,28.63
2023-02-16T08:40:48.128Z,28.13
2023-02-16T08:43:52.304Z,35.00
2023-02-16T08:47:00.343Z,31.87
2023-02-16T08:50:03.560Z,31.63
2023-02-16T08:53:06.275Z,32.93
2023-02-16T08:56:09.833Z,31.90
2023-02-16T08:59:15.222Z,21.70
2023-02-16T09:02:20.303Z,28.90
2023-02-16T09:05:23.666Z,28.23
2023-02-16T09:08:33.625Z,32.43
2023-02-16T09:12:01.516Z,31.83
2023-02-16T09:15:09.500Z,33.80
2023-02-16T09:18:14.009Z,36.83
2023-02-16T09:21:19.538Z,33.20
2023-02-16T09:24:22.917Z,33.63
2023-02-16T09:27:26.015Z,37.77
2023-02-16T09:30:30.124Z,34.50
2023-02-16T09:33:35.961Z,24.90
2023-02-16T09:36:52.889Z,23.13
2023-02-16T09:39:58.370Z,31.00
2023-02-16T09:43:09.397Z,21.73
2023-02-16T09:46:17.091Z,31.77
2023-02-16T09:49:28.310Z,27.47
2023-02-16T09:52:37.642Z,28.17
2023-02-16T09:55:48.495Z,15.13
2023-02-16T09:58:57.756Z,24.77
2023-02-16T10:02:22.396Z,32.10
2023-02-16T10:05:31.230Z,14.17
2023-02-16T10:08:39.204Z,25.60
2023-02-16T10:11:48.868Z,18.47
2023-02-16T10:14:53.974Z,21.17
2023-02-16T10:18:07.473Z,26.00
2023-02-16T10:21:18.031Z,25.33
2023-02-16T10:24:20.920Z,10.90
2023-02-16T10:27:24.122Z,24.97
2023-02-16T10:30:32.855Z,17.30
2023-02-16T10:33:43.977Z,24.80
2023-02-16T10:37:11.616Z,30.30
2023-02-16T10:40:24.351Z,23.17
2023-02-16T10:43:43.035Z,16.57
2023-02-16T10:46:50.074Z,18.53
2023-02-16T10:49:54.385Z,18.20
2023-02-16T10:53:02.970Z,17.37
2023-02-16T10:56:34.865Z,13.33
2023-02-16T10:59:42.428Z,15.37
2023-02-16T11:02:48.213Z,27.07
2023-02-16T11:05:56.384Z,19.47
2023-02-16T11:09:01.146Z,26.40
2023-02-16T11:12:16.669Z,18.93
2023-02-16T11:15:44.547Z,21.70
2023-02-16T11:18:59.718Z,19.17
2023-02-16T11:22:08.658Z,15.07
2023-02-16T11:25:27.054Z,27.27
2023-02-16T11:28:33.544Z,33.70
2023-02-16T11:31:40.859Z,26.90
2023-02-16T11:34:46.911Z,29.60
2023-02-16T11:37:53.834Z,21.60
2023-02-16T11:40:57.994Z,19.83
2023-02-16T11:44:10.498Z,28.27
2023-02-16T11:47:32.843Z,17.57
2023-02-16T11:50:38.625Z,23.37
2023-02-16T11:53:44.615Z,34.53
2023-02-16T11:57:07.413Z,22.40
2023-02-16T12:00:18.155Z,16.20
2023-02-16T12:03:51.121Z,21.00
2023-02-16T12:10:44.419Z,24.63
2023-02-16T12:13:59.237Z,30.83
2023-02-16T12:17:16.615Z,24.10
2023-02-16T12:20:38.344Z,18.03
2023-02-16T12:23:43.741Z,21.03
2023-02-16T12:26:53.163Z,33.17
2023-02-16T12:30:02.747Z,20.70
2023-02-16T12:33:27.934Z,17.07
2023-02-16T12:36:58.874Z,22.53
2023-02-16T12:40:23.538Z,27.10
2023-02-16T12:43:38.279Z,25.47
2023-02-16T12:46:45.720Z,27.10
2023-02-16T12:49:53.758Z,18.20
2023-02-16T12:52:59.999Z,24.03
2023-02-16T12:56:10.824Z,18.30
2023-02-16T12:59:21.312Z,18.00
2023-02-16T13:02:29.727Z,23.60
2023-02-16T13:05:42.740Z,22.80
2023-02-16T13:08:52.376Z,23.70
2023-02-16T13:12:02.412Z,24.67
2023-02-16T13:15:17.806Z,33.30
2023-02-16T13:18:23.181Z,37.67
2023-02-16T13:21:51.244Z,20.37
2023-02-16T13:25:10.931Z,20.47
2023-02-16T13:28:34.182Z,21.90
2023-02-16T13:31:57.881Z,24.03
2023-02-16T13:35:44.514Z,31.50
2023-02-16T13:39:19.172Z,22.63
2023-02-16T13:42:40.845Z,22.97
2023-02-16T13:45:46.851Z,27.50
2023-02-16T13:48:53.488Z,30.07
2023-02-16T13:51:56.579Z,25.77
2023-02-16T13:55:01.940Z,31.27
2023-02-16T13:58:08.673Z,18.93
2023-02-16T14:01:43.506Z,29.37
2023-02-16T14:05:07.343Z,23.97
2023-02-16T14:08:17.081Z,31.37
2023-02-16T14:11:22.275Z,28.23
2023-02-16T14:14:31.236Z,26.27
2023-02-16T14:17:37.734Z,34.13
2023-02-16T14:20:41.794Z,27.60
2023-02-16T14:23:46.258Z,31.87
2023-02-16T14:26:55.506Z,23.30
2023-02-16T14:30:02.534Z,27.97
2023-02-16T14:33:21.563Z,30.30
2023-02-16T14:36:27.673Z,40.20
2023-02-16T14:39:30.754Z,20.67
2023-02-16T14:42:35.998Z,31.47
2023-02-16T14:46:19.327Z,26.07
2023-02-16T14:49:55.500Z,32.93
2023-02-16T14:53:28.224Z,24.47
2023-02-16T14:56:39.778Z,28.30
2023-02-16T14:59:52.156Z,33.27
2023-02-16T15:02:58.511Z,27.50
2023-02-16T15:06:07.837Z,32.80
2023-02-16T15:09:17.763Z,44.17
2023-02-16T15:13:15.940Z,30.90
2023-02-16T15:16:19.259Z,35.20
2023-02-16T15:19:30.244Z,32.93
2023-02-16T15:22:33.496Z,33.83
2023-02-16T15:25:39.438Z,20.73
2023-02-16T15:28:43.390Z,38.53
2023-02-16T15:31:46.771Z,30.03
2023-02-16T15:34:50.995Z,29.30
2023-02-16T15:38:23.380Z,31.87
2023-02-16T15:41:34.234Z,29.23
2023-02-16T15:44:39.184Z,37.70
2023-02-16T15:47:44.178Z,22.27
2023-02-16T15:50:49.251Z,36.37
2023-02-16T15:53:54.366Z,14.63
2023-02-16T15:57:02.025Z,31.70
2023-02-16T16:00:07.451Z,28.30
2023-02-16T16:03:15.315Z,30.30
2023-02-16T16:06:21.094Z,30.47
2023-02-16T16:09:26.501Z,32.40
2023-02-16T16:12:31.440Z,33.23
2023-02-16T16:15:39.810Z,38.87
2023-02-16T16:18:47.537Z,36.80
2023-02-16T16:21:54.267Z,34.50
2023-02-16T16:24:57.270Z,37.07
2023-02-16T16:28:04.200Z,39.17
2023-02-16T16:31:09.546Z,41.80
2023-02-16T16:34:32.827Z,42.03
2023-02-16T16:37:37.613Z,39.70
2023-02-16T16:40:40.712Z,40.47
2023-02-16T16:43:54.955Z,41.17
2023-02-16T16:46:57.616Z,36.87
2023-02-16T16:50:02.564Z,36.33
2023-02-16T16:53:41.489Z,34.17
2023-02-16T16:56:44.225Z,40.63
2023-02-16T16:59:48.182Z,38.90
2023-02-16T17:02:51.600Z,36.57
2023-02-16T17:05:54.248Z,40.23
2023-02-16T17:08:58.476Z,43.83
2023-02-16T17:12:01.212Z,47.93
2023-02-16T17:15:08.761Z,47.87
2023-02-16T17:18:16.233Z,39.93
2023-02-16T17:21:20.221Z,39.67
2023-02-16T17:24:22.894Z,45.53
2023-02-16T17:27:25.491Z,46.90
2023-02-16T17:30:29.511Z,51.27
2023-02-16T17:33:32.134Z,50.60
2023-02-16T17:36:35.549Z,50.57
2023-02-16T17:39:38.572Z,46.30
2023-02-16T17:42:41.615Z,57.10
2023-02-16T17:45:46.923Z,52.23
2023-02-16T17:48:52.621Z,44.90
2023-02-16T17:51:56.345Z,72.87
2023-02-16T17:54:59.565Z,60.57
2023-02-16T17:58:02.980Z,57.83
2023-02-16T18:01:07.436Z,63.97
2023-02-16T18:04:10.234Z,45.33
2023-02-16T18:07:13.625Z,54.57
2023-02-16T18:10:21.782Z,70.50
2023-02-16T18:13:24.400Z,52.97
2023-02-16T18:16:28.608Z,59.47
2023-02-16T18:19:32.832Z,51.57
2023-02-16T18:22:35.510Z,71.63
2023-02-16T18:25:39.117Z,46.97
2023-02-16T18:28:41.805Z,58.13
2023-02-16T18:31:47.616Z,57.10
2023-02-16T18:34:50.460Z,43.87
2023-02-16T18:37:53.224Z,51.33
2023-02-16T18:40:56.428Z,49.40
2023-02-16T18:43:59.073Z,40.53
2023-02-16T18:47:06.125Z,46.03
2023-02-16T18:50:09.760Z,52.87
2023-02-16T18:53:12.617Z,47.63
2023-02-16T18:56:15.294Z,45.60
2023-02-16T18:59:32.040Z,45.70
2023-02-16T19:02:40.859Z,50.33
2023-02-16T19:05:43.826Z,46.50
2023-02-16T19:08:47.480Z,39.13
2023-02-16T19:11:50.152Z,43.07
2023-02-16T19:15:02.873Z,48.07
2023-02-16T19:18:10.068Z,48.27
2023-02-16T19:21:17.009Z,42.07
2023-02-16T19:24:19.655Z,51.27
2023-02-16T19:27:22.437Z,53.27
2023-02-16T19:30:25.183Z,48.67
2023-02-16T19:33:29.236Z,42.83
2023-02-16T19:36:35.064Z,44.30
2023-02-16T19:39:41.281Z,54.00
2023-02-16T19:42:44.721Z,55.17
2023-02-16T19:45:51.278Z,58.27
2023-02-16T19:49:02.249Z,53.03
2023-02-16T19:52:05.193Z,52.73
2023-02-16T19:55:10.067Z,59.93
2023-02-16T19:58:14.080Z,47.93
2023-02-16T20:01:22.119Z,51.23
2023-02-16T20:04:27.329Z,56.70
2023-02-16T20:07:29.948Z,45.30
2023-02-16T20:10:33.786Z,49.10
2023-02-16T20:13:36.559Z,50.63
2023-02-16T20:16:40.080Z,61.10
2023-02-16T20:19:44.337Z,46.07
2023-02-16T20:22:47.518Z,49.10
2023-02-16T20:25:53.243Z,49.60
2023-02-16T20:28:57.298Z,45.73
2023-02-16T20:32:03.198Z,44.20
2023-02-16T20:35:10.068Z,48.70
2023-02-16T20:38:13.136Z,45.00
2023-02-16T20:41:16.120Z,52.43
2023-02-16T20:44:20.172Z,56.57
2023-02-16T20:47:22.823Z,51.23
2023-02-16T20:50:26.788Z,64.37
2023-02-16T20:53:30.101Z,51.57
2023-02-16T20:56:32.837Z,50.67
2023-02-16T20:59:35.472Z,47.97
2023-02-16T21:02:38.112Z,48.73
2023-02-16T21:05:42.641Z,40.47
2023-02-16T21:08:45.552Z,39.07
2023-02-16T21:11:48.236Z,43.60
2023-02-16T21:14:50.911Z,41.87
2023-02-16T21:17:53.562Z,38.23
2023-02-16T21:20:57.602Z,41.10
2023-02-16T21:24:00.252Z,45.30
2023-02-16T21:27:03.875Z,45.70
2023-02-16T21:30:07.894Z,41.53
2023-02-16T21:33:10.745Z,41.90
2023-02-16T21:36:16.721Z,48.73
2023-02-16T21:39:19.578Z,48.63
2023-02-16T21:42:21.323Z,50.63
2023-02-16T21:45:24.067Z,49.53
2023-02-16T21:48:44.582Z,46.57
2023-02-16T21:51:49.698Z,44.93
2023-02-16T21:55:10.776Z,46.57
2023-02-16T21:58:13.711Z,40.27
2023-02-16T22:01:22.583Z,42.90
2023-02-16T22:04:25.753Z,39.60
2023-02-16T22:07:30.536Z,40.70
2023-02-16T22:10:33.185Z,38.20
2023-02-16T22:13:36.366Z,34.90
2023-02-16T22:16:39.664Z,36.10
2023-02-16T22:19:42.280Z,42.50
2023-02-16T22:22:46.833Z,40.47
2023-02-16T22:25:49.456Z,37.63
2023-02-16T22:28:52.590Z,37.87
2023-02-16T22:31:55.259Z,36.33
2023-02-16T22:35:01.070Z,37.37
2023-02-16T22:38:05.121Z,42.73
2023-02-16T22:41:08.612Z,38.10
2023-02-16T22:44:15.645Z,38.93
2023-02-16T22:47:18.632Z,37.80
2023-02-16T22:50:21.270Z,40.07
2023-02-16T22:53:26.966Z,37.93
2023-02-16T22:56:30.681Z,41.00
2023-02-16T22:59:36.725Z,39.53
2023-02-16T23:02:39.392Z,42.60
2023-02-16T23:05:48.466Z,45.93
2023-02-16T23:08:55.004Z,42.63
2023-02-16T23:11:57.604Z,45.07
2023-02-16T23:15:00.183Z,49.90
2023-02-16T23:18:06.914Z,49.20
2023-02-16T23:21:11.527Z,40.47
2023-02-16T23:24:17.676Z,41.23
2023-02-16T23:27:20.273Z,36.47
2023-02-16T23:30:26.208Z,42.23
2023-02-16T23:33:29.019Z,40.63
2023-02-16T23:36:36.053Z,37.93
2023-02-16T23:39:47.503Z,41.03
2023-02-16T23:42:50.124Z,38.20
2023-02-16T23:45:52.860Z,39.67
2023-02-16T23:48:58.708Z,40.13
2023-02-16T23:52:03.556Z,36.27
2023-02-16T23:55:10.716Z,38.40
2023-02-16T23:58:13.314Z,35.20
